| time (UTC) | temp F | wind direction | speed MPH | gust MPH | rain 1hr in | rain 24hr in | rain mn in | humidity % | barometer mb |
| 20260509002554 | 56 | 214 | 3.0 | 5.0 | 0.00 | 0.05 | 0.05 | 85 | 1010.2 |
| 20260509002051 | 56 | 234 | 2.0 | 5.0 | 0.00 | 0.05 | 0.05 | 85 | 1010.3 |
| 20260509001548 | 56 | 258 | 0.0 | 2.0 | 0.00 | 0.05 | 0.05 | 85 | 1010.2 |
| 20260509001044 | 56 | 231 | 2.0 | 3.0 | 0.00 | 0.05 | 0.05 | 84 | 1010.3 |
| 20260509000542 | 56 | 254 | 2.0 | 3.0 | 0.00 | 0.05 | 0.05 | 84 | 1010.2 |
| 20260509000038 | 56 | 249 | 1.0 | 3.0 | 0.00 | 0.05 | 0.05 | 84 | 1010.2 |
| 20260508235536 | 56 | 242 | 2.0 | 5.0 | 0.00 | 0.05 | 0.05 | 84 | 1010.0 |
| 20260508235032 | 57 | 222 | 1.0 | 2.0 | 0.00 | 0.05 | 0.05 | 84 | 1010.2 |
| 20260508234530 | 56 | 210 | 1.0 | 2.0 | 0.00 | 0.05 | 0.05 | 84 | 1010.2 |
| 20260508234027 | 56 | 219 | 1.0 | 3.0 | 0.00 | 0.05 | 0.05 | 84 | 1010.3 |
| 20260508233526 | 56 | 178 | 2.0 | 3.0 | 0.00 | 0.05 | 0.05 | 84 | 1010.4 |
| 20260508233023 | 57 | 279 | 1.0 | 3.0 | 0.00 | 0.05 | 0.05 | 85 | 1010.1 |
| 20260508232520 | 57 | 233 | 2.0 | 3.0 | 0.00 | 0.05 | 0.05 | 85 | 1010.4 |
| 20260508232017 | 57 | 220 | 2.0 | 5.0 | 0.00 | 0.05 | 0.05 | 85 | 1010.5 |
| 20260508231514 | 57 | 228 | 1.0 | 3.0 | 0.00 | 0.05 | 0.05 | 86 | 1010.3 |
| 20260508231011 | 57 | 221 | 3.0 | 5.0 | 0.00 | 0.05 | 0.05 | 86 | 1010.5 |
| 20260508230508 | 57 | 209 | 3.0 | 5.0 | 0.00 | 0.05 | 0.05 | 86 | 1010.4 |
| 20260508230004 | 57 | 261 | 2.0 | 2.0 | 0.00 | 0.05 | 0.05 | 87 | 1010.5 |
| 20260508225502 | 56 | 262 | 2.0 | 5.0 | 0.00 | 0.05 | 0.05 | 86 | 1010.4 |
| 20260508224959 | 56 | 235 | 2.0 | 6.0 | 0.00 | 0.05 | 0.05 | 86 | 1010.5 |
| 20260508224456 | 56 | 235 | 2.0 | 6.0 | 0.00 | 0.05 | 0.05 | 86 | 1010.5 |
| 20260508223953 | 56 | 221 | 3.0 | 6.0 | 0.00 | 0.05 | 0.05 | 86 | 1010.4 |
| 20260508223451 | 56 | 266 | 2.0 | 5.0 | 0.00 | 0.05 | 0.05 | 86 | 1010.6 |
| 20260508222948 | 56 | 229 | 2.0 | 6.0 | 0.00 | 0.05 | 0.05 | 85 | 1010.5 |
| 20260508222446 | 57 | 262 | 1.0 | 2.0 | 0.00 | 0.05 | 0.05 | 85 | 1010.7 |
| 20260508221942 | 56 | 188 | 3.0 | 5.0 | 0.00 | 0.05 | 0.05 | 85 | 1010.6 |
| 20260508221438 | 56 | 272 | 2.0 | 5.0 | 0.00 | 0.05 | 0.05 | 85 | 1010.8 |
| 20260508220934 | 57 | 260 | 2.0 | 2.0 | 0.00 | 0.05 | 0.05 | 83 | 1010.7 |
| 20260508220431 | 56 | 235 | 2.0 | 3.0 | 0.00 | 0.05 | 0.05 | 83 | 1010.4 |
| 20260508215927 | 56 | 273 | 3.0 | 5.0 | 0.00 | 0.05 | 0.05 | 83 | 1010.7 |
| 20260508215424 | 56 | 275 | 2.0 | 2.0 | 0.00 | 0.05 | 0.05 | 83 | 1010.7 |
| 20260508214921 | 57 | 284 | 1.0 | 6.0 | 0.00 | 0.05 | 0.05 | 82 | 1010.8 |
| 20260508214419 | 56 | 282 | 1.0 | 5.0 | 0.00 | 0.05 | 0.05 | 82 | 1010.6 |
| 20260508213914 | 56 | 264 | 3.0 | 5.0 | 0.00 | 0.05 | 0.05 | 82 | 1010.6 |
| 20260508213412 | 56 | 229 | 4.0 | 7.0 | 0.00 | 0.05 | 0.05 | 83 | 1010.3 |
| 20260508212907 | 56 | 234 | 2.0 | 5.0 | 0.00 | 0.05 | 0.05 | 83 | 1010.8 |
| 20260508212404 | 55 | 246 | 3.0 | 8.0 | 0.00 | 0.05 | 0.05 | 84 | 1010.7 |
| 20260508211900 | 56 | 268 | 1.0 | 3.0 | 0.00 | 0.05 | 0.05 | 85 | 1010.8 |
| 20260508211355 | 56 | 255 | 2.0 | 3.0 | 0.00 | 0.05 | 0.05 | 84 | 1010.9 |
| 20260508210854 | 55 | 258 | 5.0 | 7.0 | 0.00 | 0.05 | 0.05 | 84 | 1010.8 |
| 20260508210350 | 55 | 250 | 2.0 | 3.0 | 0.00 | 0.05 | 0.05 | 84 | 1010.8 |
| 20260508205846 | 55 | 273 | 6.0 | 7.0 | 0.00 | 0.05 | 0.05 | 83 | 1011.0 |
| 20260508205343 | 55 | 260 | 3.0 | 8.0 | 0.05 | 0.05 | 0.05 | 82 | 1011.0 |
| 20260508204839 | 55 | 286 | 3.0 | 15.0 | 0.05 | 0.05 | 0.05 | 82 | 1011.1 |
| 20260508204336 | 56 | 256 | 4.0 | 13.0 | 0.00 | 0.04 | 0.04 | 82 | 1011.2 |
| 20260508203832 | 56 | 211 | 7.0 | 15.0 | 0.00 | 0.04 | 0.04 | 80 | 1011.2 |
| 20260508203329 | 57 | 209 | 4.0 | 7.0 | 0.00 | 0.04 | 0.04 | 83 | 1011.4 |
| 20260508202824 | 57 | 267 | 1.0 | 2.0 | 0.07 | 0.04 | 0.04 | 82 | 1011.3 |
| 20260508202322 | 57 | 245 | 1.0 | 3.0 | 0.07 | 0.04 | 0.04 | 80 | 1011.3 |
| 20260508201819 | 58 | 231 | 1.0 | 2.0 | 0.00 | 0.03 | 0.03 | 78 | 1011.3 |
| 20260508201316 | 58 | 238 | 1.0 | 2.0 | 0.00 | 0.03 | 0.03 | 77 | 1011.1 |
| 20260508200812 | 58 | 218 | 1.0 | 1.0 | 0.00 | 0.03 | 0.03 | 75 | 1011.3 |
| 20260508200309 | 59 | 274 | 0.0 | 1.0 | 0.00 | 0.03 | 0.03 | 75 | 1011.1 |
| 20260508195805 | 59 | 252 | 1.0 | 1.0 | 0.00 | 0.03 | 0.03 | 74 | 1011.3 |
| 20260508195305 | 60 | 280 | 3.0 | 3.0 | 0.00 | 0.03 | 0.03 | 73 | 1011.4 |
| 20260508194758 | 60 | 279 | 3.0 | 3.0 | 0.00 | 0.03 | 0.03 | 70 | 1011.2 |
| 20260508194255 | 60 | 257 | 1.0 | 1.0 | 0.00 | 0.03 | 0.03 | 70 | 1011.3 |
| 20260508193752 | 60 | 297 | 1.0 | 1.0 | 0.00 | 0.03 | 0.03 | 70 | 1011.3 |
| 20260508193249 | 60 | 235 | 1.0 | 2.0 | 0.00 | 0.03 | 0.03 | 67 | 1011.4 |
| 20260508192745 | 60 | 278 | 0.0 | 1.0 | 0.00 | 0.03 | 0.03 | 69 | 1011.5 |
| 20260508192242 | 60 | 278 | 2.0 | 3.0 | 0.00 | 0.03 | 0.03 | 68 | 1011.6 |
| 20260508191740 | 60 | 238 | 0.0 | 1.0 | 0.00 | 0.03 | 0.03 | 67 | 1011.6 |
| 20260508191237 | 58 | 280 | 0.0 | 1.0 | 0.00 | 0.03 | 0.03 | 69 | 1011.6 |
| 20260508190734 | 59 | 275 | 0.0 | 1.0 | 0.00 | 0.03 | 0.03 | 71 | 1011.8 |
| 20260508190229 | 58 | 254 | 0.0 | 1.0 | 0.00 | 0.03 | 0.03 | 70 | 1011.9 |
| 20260508185727 | 59 | 297 | 2.0 | 3.0 | 0.00 | 0.03 | 0.03 | 72 | 1012.0 |
| 20260508185224 | 58 | 268 | 0.0 | 2.0 | 0.00 | 0.03 | 0.03 | 71 | 1011.8 |
| 20260508184721 | 58 | 266 | 0.0 | 2.0 | 0.00 | 0.03 | 0.03 | 71 | 1011.8 |
| 20260508184218 | 58 | 247 | 0.0 | 1.0 | 0.00 | 0.03 | 0.03 | 72 | 1012.1 |
| 20260508183715 | 58 | 268 | 0.0 | 1.0 | 0.00 | 0.03 | 0.03 | 75 | 1012.1 |
| 20260508183211 | 58 | 280 | 0.0 | 1.0 | 0.00 | 0.03 | 0.03 | 77 | 1012.4 |
| 20260508182707 | 58 | 269 | 0.0 | 0.0 | 0.00 | 0.03 | 0.03 | 74 | 1012.4 |
| 20260508182204 | 58 | 310 | 2.0 | 2.0 | 0.00 | 0.03 | 0.03 | 77 | 1012.4 |
| 20260508181700 | 57 | 265 | 2.0 | 2.0 | 0.00 | 0.03 | 0.03 | 74 | 1012.4 |
| 20260508181157 | 57 | 282 | 3.0 | 5.0 | 0.00 | 0.03 | 0.03 | 74 | 1012.5 |
| 20260508180653 | 57 | 268 | 3.0 | 5.0 | 0.00 | 0.03 | 0.03 | 76 | 1012.5 |
| 20260508180151 | 56 | 249 | 1.0 | 3.0 | 0.00 | 0.03 | 0.03 | 79 | 1012.7 |
| 20260508175647 | 55 | 274 | 0.0 | 0.0 | 0.00 | 0.03 | 0.03 | 80 | 1012.8 |
| 20260508175144 | 54 | 324 | 1.0 | 1.0 | 0.00 | 0.03 | 0.03 | 80 | 1012.7 |
| 20260508174642 | 54 | 244 | 1.0 | 1.0 | 0.00 | 0.03 | 0.03 | 81 | 1012.7 |
| 20260508174138 | 55 | 227 | 1.0 | 1.0 | 0.00 | 0.03 | 0.03 | 83 | 1013.0 |
| 20260508173635 | 53 | 260 | 1.0 | 3.0 | 0.00 | 0.03 | 0.03 | 83 | 1013.2 |
| 20260508173131 | 54 | 250 | 1.0 | 1.0 | 0.00 | 0.03 | 0.03 | 84 | 1013.3 |
| 20260508172628 | 53 | 301 | 0.0 | 1.0 | 0.00 | 0.03 | 0.03 | 86 | 1013.5 |
| 20260508172125 | 54 | 318 | 1.0 | 2.0 | 0.00 | 0.03 | 0.03 | 86 | 1013.4 |
| 20260508171621 | 53 | 265 | 0.0 | 0.0 | 0.00 | 0.03 | 0.03 | 85 | 1013.4 |
| 20260508171118 | 53 | 244 | 1.0 | 1.0 | 0.00 | 0.03 | 0.03 | 84 | 1013.5 |
| 20260508170615 | 53 | 274 | 0.0 | 0.0 | 0.00 | 0.03 | 0.03 | 85 | 1013.9 |
| 20260508170113 | 52 | 279 | 0.0 | 0.0 | 0.00 | 0.03 | 0.03 | 86 | 1013.7 |
| 20260508165609 | 53 | 264 | 0.0 | 2.0 | 0.00 | 0.03 | 0.03 | 86 | 1013.7 |
| 20260508165106 | 52 | 275 | 0.0 | 0.0 | 0.00 | 0.03 | 0.03 | 87 | 1014.1 |
| 20260508164603 | 52 | 264 | 0.0 | 1.0 | 0.05 | 0.03 | 0.03 | 86 | 1014.1 |
| 20260508164059 | 52 | 262 | 0.0 | 1.0 | 0.05 | 0.03 | 0.03 | 85 | 1014.2 |
| 20260508163557 | 52 | 255 | 0.0 | 1.0 | 0.07 | 0.02 | 0.02 | 84 | 1014.3 |
| 20260508163054 | 53 | 256 | 2.0 | 6.0 | 0.07 | 0.02 | 0.02 | 82 | 1014.2 |
| 20260508162550 | 53 | 234 | 3.0 | 3.0 | 0.00 | 0.01 | 0.01 | 80 | 1014.2 |
| 20260508162048 | 54 | 234 | 4.0 | 5.0 | 0.00 | 0.01 | 0.01 | 78 | 1014.1 |
| 20260508161545 | 53 | 248 | 1.0 | 6.0 | 0.00 | 0.01 | 0.01 | 79 | 1014.1 |
| 20260508161042 | 53 | 276 | 1.0 | 3.0 | 0.00 | 0.01 | 0.01 | 80 | 1014.1 |
| 20260508160540 | 54 | 227 | 3.0 | 5.0 | 0.00 | 0.01 | 0.01 | 79 | 1014.0 |
| 20260508160037 | 53 | 273 | 3.0 | 8.0 | 0.00 | 0.01 | 0.01 | 82 | 1014.2 |
| 20260508155534 | 52 | 202 | 2.0 | 5.0 | 0.00 | 0.01 | 0.01 | 82 | 1014.0 |
| 20260508155031 | 52 | 227 | 2.0 | 5.0 | 0.00 | 0.01 | 0.01 | 82 | 1014.2 |
| 20260508154528 | 52 | 179 | 4.0 | 5.0 | 0.00 | 0.01 | 0.01 | 84 | 1014.3 |
| 20260508154025 | 51 | 206 | 3.0 | 5.0 | 0.00 | 0.01 | 0.01 | 83 | 1014.2 |
| 20260508153522 | 51 | 225 | 5.0 | 6.0 | 0.00 | 0.01 | 0.01 | 83 | 1014.3 |
| 20260508153018 | 51 | 238 | 2.0 | 3.0 | 0.00 | 0.01 | 0.01 | 83 | 1014.0 |
| 20260508152515 | 52 | 247 | 5.0 | 6.0 | 0.00 | 0.01 | 0.01 | 83 | 1014.1 |
| 20260508152011 | 52 | 215 | 2.0 | 2.0 | 0.00 | 0.01 | 0.01 | 84 | 1014.3 |
| 20260508151508 | 51 | 272 | 1.0 | 3.0 | 0.00 | 0.01 | 0.01 | 85 | 1014.3 |
| 20260508151004 | 51 | 292 | 1.0 | 3.0 | 0.00 | 0.01 | 0.01 | 85 | 1014.3 |
| 20260508150501 | 50 | 270 | 1.0 | 2.0 | 0.00 | 0.01 | 0.01 | 85 | 1014.6 |
| 20260508145956 | 50 | 270 | 1.0 | 6.0 | 0.07 | 0.01 | 0.01 | 85 | 1014.5 |
| 20260508145454 | 50 | 343 | 2.0 | 6.0 | 0.07 | 0.01 | 0.01 | 85 | 1014.6 |
| 20260508144950 | 50 | 295 | 3.0 | 7.0 | 0.00 | 0.00 | 0.00 | 85 | 1014.5 |
| 20260508144448 | 51 | 253 | 1.0 | 6.0 | 0.00 | 0.00 | 0.00 | 86 | 1014.6 |
| 20260508143945 | 51 | 278 | 3.0 | 7.0 | 0.00 | 0.00 | 0.00 | 84 | 1014.8 |
| 20260508143443 | 52 | 281 | 4.0 | 13.0 | 0.00 | 0.00 | 0.00 | 83 | 1014.8 |
| 20260508142939 | 52 | 284 | 2.0 | 5.0 | 0.00 | 0.00 | 0.00 | 82 | 1014.9 |
| 20260508142436 | 52 | 277 | 7.0 | 9.0 | 0.00 | 0.00 | 0.00 | 82 | 1015.1 |
| 20260508141932 | 52 | 272 | 2.0 | 3.0 | 0.00 | 0.00 | 0.00 | 82 | 1015.1 |
| 20260508141429 | 52 | 218 | 3.0 | 10.0 | 0.00 | 0.00 | 0.00 | 81 | 1014.8 |
| 20260508140927 | 52 | 265 | 3.0 | 8.0 | 0.00 | 0.00 | 0.00 | 81 | 1014.7 |
| 20260508140424 | 52 | 272 | 7.0 | 8.0 | 0.00 | 0.00 | 0.00 | 81 | 1014.7 |
| 20260508135919 | 52 | 305 | 3.0 | 5.0 | 0.00 | 0.00 | 0.00 | 80 | 1014.4 |
| 20260508135416 | 52 | 251 | 3.0 | 3.0 | 0.00 | 0.00 | 0.00 | 81 | 1014.5 |
| 20260508134913 | 52 | 262 | 4.0 | 5.0 | 0.00 | 0.00 | 0.00 | 80 | 1014.4 |
| 20260508134409 | 52 | 207 | 3.0 | 3.0 | 0.00 | 0.00 | 0.00 | 80 | 1014.6 |
| 20260508133906 | 52 | 285 | 2.0 | 8.0 | 0.00 | 0.00 | 0.00 | 80 | 1014.6 |
| 20260508133404 | 52 | 266 | 1.0 | 2.0 | 0.00 | 0.00 | 0.00 | 81 | 1014.7 |
| 20260508132900 | 51 | 220 | 1.0 | 6.0 | 0.00 | 0.00 | 0.00 | 80 | 1014.8 |
| 20260508132358 | 51 | 280 | 1.0 | 3.0 | 0.00 | 0.00 | 0.00 | 81 | 1014.8 |
| 20260508131855 | 50 | 252 | 0.0 | 1.0 | 0.00 | 0.00 | 0.00 | 81 | 1014.3 |
| 20260508131350 | 50 | 267 | 0.0 | 1.0 | 0.00 | 0.00 | 0.00 | 81 | 1014.5 |
| 20260508130847 | 50 | 242 | 0.0 | 1.0 | 0.00 | 0.00 | 0.00 | 80 | 1014.5 |
| 20260508130344 | 50 | 267 | 1.0 | 2.0 | 0.00 | 0.00 | 0.00 | 81 | 1014.7 |
| 20260508125840 | 50 | 294 | 3.0 | 6.0 | 0.00 | 0.00 | 0.00 | 81 | 1014.7 |
| 20260508125336 | 50 | 275 | 1.0 | 3.0 | 0.00 | 0.00 | 0.00 | 82 | 1014.6 |
| 20260508124834 | 50 | 271 | 0.0 | 2.0 | 0.00 | 0.00 | 0.00 | 82 | 1014.6 |
| 20260508124331 | 50 | 272 | 0.0 | 1.0 | 0.00 | 0.00 | 0.00 | 83 | 1014.5 |
| 20260508123829 | 50 | 286 | 1.0 | 1.0 | 0.00 | 0.00 | 0.00 | 82 | 1014.5 |
| 20260508123328 | 50 | 280 | 1.0 | 1.0 | 0.00 | 0.00 | 0.00 | 81 | 1014.6 |
| 20260508122824 | 50 | 267 | 2.0 | 5.0 | 0.00 | 0.00 | 0.00 | 82 | 1014.4 |
| 20260508122320 | 49 | 275 | 0.0 | 1.0 | 0.00 | 0.00 | 0.00 | 82 | 1014.5 |
| 20260508121818 | 49 | 244 | 3.0 | 3.0 | 0.00 | 0.00 | 0.00 | 82 | 1014.5 |
| 20260508121316 | 49 | 276 | 2.0 | 3.0 | 0.00 | 0.00 | 0.00 | 82 | 1014.3 |
| 20260508120813 | 49 | 276 | 1.0 | 2.0 | 0.00 | 0.00 | 0.00 | 82 | 1014.4 |
| 20260508120311 | 49 | 270 | 2.0 | 2.0 | 0.00 | 0.00 | 0.00 | 83 | 1014.5 |
| 20260508115808 | 49 | 273 | 1.0 | 1.0 | 0.00 | 0.00 | 0.00 | 82 | 1014.3 |
| 20260508115306 | 49 | 278 | 1.0 | 2.0 | 0.00 | 0.00 | 0.00 | 82 | 1014.4 |
| 20260508114802 | 49 | 258 | 2.0 | 2.0 | 0.00 | 0.00 | 0.00 | 83 | 1014.2 |
| 20260508114259 | 49 | 286 | 1.0 | 5.0 | 0.00 | 0.00 | 0.00 | 83 | 1014.1 |
| 20260508113755 | 49 | 274 | 0.0 | 2.0 | 0.00 | 0.00 | 0.00 | 82 | 1014.0 |
| 20260508113254 | 49 | 320 | 3.0 | 3.0 | 0.00 | 0.00 | 0.00 | 82 | 1014.1 |
| 20260508112750 | 49 | 285 | 1.0 | 3.0 | 0.00 | 0.00 | 0.00 | 83 | 1014.2 |
| 20260508112247 | 48 | 315 | 2.0 | 2.0 | 0.00 | 0.00 | 0.00 | 83 | 1014.0 |
| 20260508111743 | 48 | 274 | 2.0 | 5.0 | 0.00 | 0.00 | 0.00 | 81 | 1014.0 |
| 20260508111241 | 48 | 284 | 1.0 | 3.0 | 0.00 | 0.00 | 0.00 | 81 | 1014.2 |
| 20260508110739 | 48 | 270 | 1.0 | 5.0 | 0.00 | 0.00 | 0.00 | 82 | 1014.0 |
| 20260508110236 | 48 | 251 | 1.0 | 1.0 | 0.00 | 0.00 | 0.00 | 83 | 1013.5 |
| 20260508105735 | 47 | 275 | 3.0 | 3.0 | 0.00 | 0.00 | 0.00 | 83 | 1013.9 |
| 20260508105232 | 47 | 270 | 1.0 | 2.0 | 0.00 | 0.00 | 0.00 | 83 | 1013.9 |
| 20260508104730 | 47 | 287 | 1.0 | 3.0 | 0.00 | 0.00 | 0.00 | 84 | 1013.7 |
| 20260508104226 | 46 | 254 | 1.0 | 2.0 | 0.00 | 0.00 | 0.00 | 86 | 1013.9 |
| 20260508103724 | 46 | 261 | 0.0 | 1.0 | 0.00 | 0.00 | 0.00 | 87 | 1013.3 |
| 20260508103221 | 46 | 258 | 0.0 | 1.0 | 0.00 | 0.00 | 0.00 | 87 | 1013.5 |
| 20260508102718 | 45 | 226 | 1.0 | 2.0 | 0.00 | 0.00 | 0.00 | 88 | 1013.4 |
| 20260508102216 | 45 | 265 | 0.0 | 0.0 | 0.00 | 0.00 | 0.00 | 87 | 1013.5 |
| 20260508101713 | 45 | 258 | 0.0 | 1.0 | 0.00 | 0.00 | 0.00 | 87 | 1013.5 |
| 20260508101211 | 46 | 275 | 0.0 | 0.0 | 0.00 | 0.00 | 0.00 | 85 | 1013.5 |
| 20260508100708 | 46 | 211 | 2.0 | 3.0 | 0.00 | 0.00 | 0.00 | 86 | 1013.7 |
| 20260508100206 | 46 | 278 | 1.0 | 3.0 | 0.00 | 0.00 | 0.00 | 85 | 1013.9 |
| 20260508095702 | 45 | 237 | 1.0 | 2.0 | 0.00 | 0.00 | 0.00 | 87 | 1014.0 |
| 20260508095159 | 45 | 232 | 1.0 | 3.0 | 0.00 | 0.00 | 0.00 | 88 | 1013.7 |
| 20260508094656 | 45 | 233 | 0.0 | 0.0 | 0.00 | 0.00 | 0.00 | 89 | 1013.9 |
| 20260508094153 | 44 | 228 | 1.0 | 1.0 | 0.00 | 0.00 | 0.00 | 91 | 1014.0 |
| 20260508093650 | 44 | 267 | 0.0 | 0.0 | 0.00 | 0.00 | 0.00 | 91 | 1013.6 |
| 20260508093148 | 44 | 260 | 0.0 | 0.0 | 0.00 | 0.00 | 0.00 | 91 | 1014.0 |
| 20260508092644 | 44 | 262 | 0.0 | 1.0 | 0.00 | 0.00 | 0.00 | 91 | 1013.6 |
| 20260508092143 | 44 | 243 | 0.0 | 1.0 | 0.00 | 0.00 | 0.00 | 91 | 1013.9 |
| 20260508091640 | 44 | 253 | 1.0 | 1.0 | 0.00 | 0.00 | 0.00 | 93 | 1013.6 |
| 20260508091137 | 44 | 249 | 1.0 | 3.0 | 0.00 | 0.00 | 0.00 | 96 | 1013.9 |
| 20260508090635 | 44 | 265 | 0.0 | 1.0 | 0.00 | 0.00 | 0.00 | 96 | 1014.2 |
| 20260508090132 | 43 | 266 | 1.0 | 1.0 | 0.00 | 0.00 | 0.00 | 96 | 1014.0 |
| 20260508085628 | 43 | 280 | 0.0 | 1.0 | 0.00 | 0.00 | 0.00 | 96 | 1014.2 |
| 20260508085125 | 43 | 274 | 0.0 | 2.0 | 0.00 | 0.00 | 0.00 | 96 | 1013.9 |
| 20260508084621 | 43 | 269 | 0.0 | 0.0 | 0.00 | 0.00 | 0.00 | 97 | 1013.7 |
| 20260508084119 | 43 | 274 | 0.0 | 1.0 | 0.00 | 0.00 | 0.00 | 97 | 1013.7 |
| 20260508083616 | 43 | 259 | 1.0 | 1.0 | 0.00 | 0.00 | 0.00 | 97 | 1014.0 |
| 20260508083113 | 43 | 256 | 0.0 | 0.0 | 0.00 | 0.00 | 0.00 | 97 | 1014.0 |
| 20260508082609 | 43 | 273 | 0.0 | 1.0 | 0.00 | 0.00 | 0.00 | 97 | 1013.7 |
| 20260508082106 | 42 | 271 | 0.0 | 1.0 | 0.00 | 0.00 | 0.00 | 97 | 1013.9 |
| 20260508081604 | 42 | 276 | 0.0 | 0.0 | 0.00 | 0.00 | 0.00 | 97 | 1013.7 |
| 20260508081100 | 42 | 266 | 0.0 | 0.0 | 0.00 | 0.00 | 0.00 | 97 | 1014.0 |
| 20260508080558 | 42 | 302 | 0.0 | 0.0 | 0.00 | 0.00 | 0.00 | 97 | 1013.7 |
| 20260508080055 | 42 | 282 | 0.0 | 1.0 | 0.00 | 0.00 | 0.00 | 97 | 1013.7 |
| 20260508075551 | 42 | 285 | 0.0 | 0.0 | 0.00 | 0.00 | 0.00 | 97 | 1013.7 |
| 20260508075049 | 42 | 287 | 0.0 | 0.0 | 0.00 | 0.00 | 0.00 | 97 | 1013.7 |
| 20260508074546 | 42 | 276 | 0.0 | 0.0 | 0.00 | 0.00 | 0.00 | 97 | 1013.9 |
| 20260508074043 | 42 | 285 | 0.0 | 0.0 | 0.00 | 0.00 | 0.00 | 97 | 1013.9 |
| 20260508073540 | 42 | 276 | 0.0 | 0.0 | 0.00 | 0.00 | 0.00 | 97 | 1013.7 |
| 20260508073038 | 42 | 266 | 0.0 | 0.0 | 0.00 | 0.00 | 0.00 | 97 | 1013.9 |
| 20260508072533 | 42 | 271 | 0.0 | 0.0 | 0.00 | 0.00 | 0.00 | 97 | 1014.0 |
| 20260508072031 | 42 | 268 | 0.0 | 0.0 | 0.00 | 0.00 | 0.00 | 97 | 1013.9 |
| 20260508071529 | 42 | 265 | 0.0 | 0.0 | 0.00 | 0.00 | 0.00 | 96 | 1013.9 |
| 20260508071026 | 43 | 273 | 0.0 | 0.0 | 0.00 | 0.00 | 0.00 | 97 | 1013.9 |
| 20260508070524 | 43 | 268 | 0.0 | 0.0 | 0.00 | 0.00 | 0.00 | 96 | 1013.9 |
| 20260508070022 | 43 | 263 | 0.0 | 0.0 | 0.00 | 0.00 | 0.00 | 97 | 1014.1 |
| 20260508065519 | 43 | 219 | 0.0 | 0.0 | 0.00 | 0.00 | 0.00 | 97 | 1014.1 |
| 20260508065017 | 43 | 256 | 0.0 | 0.0 | 0.00 | 0.00 | 0.00 | 97 | 1014.1 |
| 20260508064514 | 43 | 261 | 0.0 | 0.0 | 0.00 | 0.00 | 0.00 | 96 | 1014.1 |
| 20260508064012 | 43 | 264 | 0.0 | 0.0 | 0.00 | 0.00 | 0.00 | 97 | 1014.3 |
| 20260508063509 | 43 | 265 | 0.0 | 0.0 | 0.00 | 0.00 | 0.00 | 96 | 1014.3 |
| 20260508063007 | 42 | 263 | 0.0 | 0.0 | 0.00 | 0.00 | 0.00 | 96 | 1014.3 |
| 20260508062505 | 42 | 279 | 0.0 | 0.0 | 0.00 | 0.00 | 0.00 | 96 | 1014.4 |
| 20260508062001 | 42 | 285 | 0.0 | 0.0 | 0.00 | 0.00 | 0.00 | 96 | 1014.4 |
| 20260508061459 | 42 | 281 | 0.0 | 0.0 | 0.00 | 0.00 | 0.00 | 96 | 1014.4 |
| 20260508060955 | 42 | 271 | 0.0 | 0.0 | 0.00 | 0.00 | 0.00 | 96 | 1014.3 |
| 20260508060452 | 42 | 271 | 0.0 | 0.0 | 0.00 | 0.00 | 0.00 | 96 | 1014.5 |
| 20260508055948 | 42 | 280 | 0.0 | 0.0 | 0.00 | 0.00 | 0.00 | 96 | 1014.6 |
| 20260508055446 | 43 | 274 | 0.0 | 0.0 | 0.00 | 0.00 | 0.00 | 96 | 1014.4 |
| 20260508054942 | 43 | 265 | 0.0 | 0.0 | 0.00 | 0.00 | 0.00 | 96 | 1014.6 |
| 20260508054439 | 43 | 271 | 0.0 | 0.0 | 0.00 | 0.00 | 0.00 | 96 | 1014.7 |
| 20260508053936 | 43 | 278 | 0.0 | 0.0 | 0.00 | 0.00 | 0.00 | 95 | 1014.5 |
| 20260508053433 | 43 | 285 | 0.0 | 0.0 | 0.00 | 0.00 | 0.00 | 95 | 1014.7 |
| 20260508052931 | 43 | 285 | 0.0 | 0.0 | 0.00 | 0.00 | 0.00 | 95 | 1014.5 |
| 20260508052428 | 43 | 276 | 0.0 | 0.0 | 0.00 | 0.00 | 0.00 | 95 | 1014.5 |
| 20260508051924 | 43 | 269 | 0.0 | 0.0 | 0.00 | 0.00 | 0.00 | 95 | 1014.7 |
| 20260508051420 | 44 | 266 | 0.0 | 0.0 | 0.00 | 0.00 | 0.00 | 95 | 1014.7 |
| 20260508050916 | 44 | 266 | 0.0 | 0.0 | 0.00 | 0.00 | 0.00 | 95 | 1014.8 |
| 20260508050413 | 43 | 271 | 0.0 | 0.0 | 0.00 | 0.00 | 0.00 | 95 | 1014.7 |
| 20260508045909 | 44 | 274 | 0.0 | 0.0 | 0.00 | 0.00 | 0.00 | 95 | 1014.8 |
| 20260508045407 | 44 | 274 | 0.0 | 0.0 | 0.00 | 0.00 | 0.00 | 95 | 1014.7 |
| 20260508044904 | 44 | 265 | 0.0 | 0.0 | 0.00 | 0.00 | 0.00 | 95 | 1014.8 |
| 20260508044401 | 44 | 266 | 0.0 | 0.0 | 0.00 | 0.00 | 0.00 | 95 | 1014.7 |
| 20260508043856 | 44 | 274 | 0.0 | 0.0 | 0.00 | 0.00 | 0.00 | 94 | 1014.9 |
| 20260508043354 | 44 | 277 | 0.0 | 0.0 | 0.00 | 0.00 | 0.00 | 94 | 1014.8 |
| 20260508042850 | 45 | 280 | 0.0 | 0.0 | 0.00 | 0.00 | 0.00 | 94 | 1014.8 |
| 20260508042348 | 45 | 279 | 0.0 | 0.0 | 0.00 | 0.00 | 0.00 | 94 | 1014.6 |
| 20260508041845 | 45 | 262 | 0.0 | 0.0 | 0.00 | 0.00 | 0.00 | 94 | 1014.8 |
| 20260508041341 | 45 | 261 | 0.0 | 0.0 | 0.00 | 0.00 | 0.00 | 94 | 1014.6 |
| 20260508040838 | 45 | 271 | 0.0 | 0.0 | 0.00 | 0.00 | 0.00 | 94 | 1014.8 |
| 20260508040335 | 46 | 266 | 0.0 | 0.0 | 0.00 | 0.00 | 0.00 | 94 | 1014.8 |
| 20260508035832 | 46 | 255 | 0.0 | 0.0 | 0.00 | 0.04 | 0.04 | 94 | 1014.9 |
| 20260508035330 | 46 | 250 | 0.0 | 0.0 | 0.00 | 0.04 | 0.04 | 94 | 1014.5 |
| 20260508034827 | 46 | 259 | 0.0 | 0.0 | 0.00 | 0.04 | 0.04 | 93 | 1014.9 |
| 20260508034324 | 46 | 261 | 0.0 | 0.0 | 0.00 | 0.04 | 0.04 | 93 | 1014.9 |
| 20260508033820 | 46 | 237 | 0.0 | 1.0 | 0.00 | 0.04 | 0.04 | 93 | 1014.9 |
| 20260508033319 | 46 | 264 | 0.0 | 0.0 | 0.00 | 0.04 | 0.04 | 92 | 1014.9 |
| 20260508032816 | 46 | 269 | 0.0 | 0.0 | 0.00 | 0.04 | 0.04 | 92 | 1014.9 |
| 20260508032313 | 46 | 260 | 0.0 | 0.0 | 0.00 | 0.04 | 0.04 | 92 | 1015.1 |
| 20260508031810 | 46 | 255 | 0.0 | 0.0 | 0.00 | 0.04 | 0.04 | 91 | 1015.1 |
| 20260508031306 | 46 | 256 | 0.0 | 0.0 | 0.00 | 0.04 | 0.04 | 91 | 1015.2 |
| 20260508030802 | 47 | 239 | 1.0 | 1.0 | 0.00 | 0.04 | 0.04 | 90 | 1015.3 |
| 20260508030300 | 47 | 216 | 1.0 | 1.0 | 0.00 | 0.04 | 0.04 | 89 | 1015.5 |
| 20260508025756 | 47 | 320 | 0.0 | 1.0 | 0.00 | 0.04 | 0.04 | 88 | 1015.6 |
| 20260508025254 | 47 | 274 | 2.0 | 2.0 | 0.00 | 0.04 | 0.04 | 88 | 1015.4 |
| 20260508024750 | 48 | 228 | 1.0 | 2.0 | 0.12 | 0.04 | 0.04 | 88 | 1015.5 |
| 20260508024247 | 48 | 284 | 1.0 | 2.0 | 0.17 | 0.04 | 0.04 | 87 | 1015.7 |
| 20260508023744 | 48 | 273 | 1.0 | 2.0 | 0.12 | 0.02 | 0.02 | 86 | 1015.6 |
| 20260508023241 | 48 | 298 | 2.0 | 2.0 | 0.07 | 0.01 | 0.01 | 84 | 1015.4 |
| 20260508022737 | 49 | 300 | 1.0 | 2.0 | 0.00 | 0.00 | 0.00 | 81 | 1015.1 |
| 20260508022234 | 49 | 294 | 2.0 | 2.0 | 0.00 | 0.00 | 0.00 | 78 | 1014.9 |
| 20260508021730 | 50 | 280 | 1.0 | 2.0 | 0.00 | 0.00 | 0.00 | 77 | 1014.9 |
| 20260508021226 | 50 | 270 | 0.0 | 1.0 | 0.00 | 0.00 | 0.00 | 75 | 1014.7 |
| 20260508020723 | 51 | 322 | 2.0 | 3.0 | 0.00 | 0.00 | 0.00 | 72 | 1014.6 |
| 20260508020220 | 50 | 242 | 1.0 | 2.0 | 0.00 | 0.00 | 0.00 | 71 | 1014.5 |
| 20260508015717 | 50 | 218 | 1.0 | 1.0 | 0.00 | 0.00 | 0.00 | 71 | 1014.3 |
| 20260508015215 | 50 | 274 | 0.0 | 1.0 | 0.00 | 0.00 | 0.00 | 70 | 1014.3 |
| 20260508014711 | 50 | 259 | 0.0 | 1.0 | 0.00 | 0.00 | 0.00 | 70 | 1014.4 |
| 20260508014208 | 50 | 206 | 1.0 | 2.0 | 0.00 | 0.00 | 0.00 | 70 | 1014.4 |
| 20260508013704 | 50 | 216 | 1.0 | 2.0 | 0.00 | 0.00 | 0.00 | 69 | 1014.2 |
| 20260508013200 | 50 | 250 | 2.0 | 2.0 | 0.00 | 0.00 | 0.00 | 70 | 1014.2 |
| 20260508012658 | 51 | 221 | 1.0 | 1.0 | 0.00 | 0.00 | 0.00 | 69 | 1014.1 |
| 20260508012155 | 51 | 237 | 1.0 | 3.0 | 0.00 | 0.00 | 0.00 | 69 | 1014.3 |
| 20260508011653 | 51 | 222 | 1.0 | 2.0 | 0.00 | 0.00 | 0.00 | 69 | 1014.3 |
| 20260508011150 | 51 | 219 | 3.0 | 3.0 | 0.00 | 0.00 | 0.00 | 69 | 1014.2 |
| 20260508010647 | 51 | 246 | 2.0 | 2.0 | 0.00 | 0.00 | 0.00 | 68 | 1014.1 |
| 20260508010145 | 51 | 224 | 3.0 | 3.0 | 0.00 | 0.00 | 0.00 | 67 | 1014.3 |
| 20260508005642 | 51 | 216 | 1.0 | 2.0 | 0.00 | 0.00 | 0.00 | 66 | 1014.3 |
| 20260508005138 | 51 | 265 | 0.0 | 1.0 | 0.00 | 0.00 | 0.00 | 64 | 1014.2 |
| 20260508004634 | 52 | 235 | 1.0 | 1.0 | 0.00 | 0.00 | 0.00 | 64 | 1014.2 |
| 20260508004131 | 52 | 234 | 2.0 | 3.0 | 0.00 | 0.00 | 0.00 | 63 | 1014.2 |
| 20260508003627 | 52 | 277 | 1.0 | 2.0 | 0.00 | 0.00 | 0.00 | 62 | 1014.2 |
| 20260508003125 | 52 | 233 | 2.0 | 3.0 | 0.00 | 0.00 | 0.00 | 60 | 1014.1 |